Aérodrome :
LOGIN :

S'inscrire | Disclaimer

   EN    FR    IT 

 










Légende :    VFR   VFR Marginal   IFR   IFR Intensif   IFR Très Intensif
Visi : 
Plafond : 
>= 8 km
>= 3000ft
5 à 8 km
1000 à 3000 ft
1500m à 5 km
500 à 1000 ft
800 à 1500m
200 à 500 ft
< 800m
< 200 ft
Symboles :   Orages  Brouillard  Fortes neiges  Fortes précipitations  Vent > 20 kt
SIGMETs :   Divers  Orages  Givrage  Turbulence  Onde Orograph.  Cendres Volcan.






- Altitude de l'aérodrome : 200 ft


EBBL - Klein Brogel AB

DERNIER METAR :
  • 211555Z AUTO 23015KT 9999 OVC034/// 09/03 Q1025 BLU

METARs EXPIRÉS :
  • 211533Z 22016KT 9999 SCT032 BKN095 09/03 Q1025 BLU FCST CANCEL
  • 211525Z 23015KT 9999 SCT032 BKN095 09/03 Q1025 BLU BLU
  • 211455Z 22011KT 9999 SCT032 BKN095 09/03 Q1025 BLU BLU
  • 211425Z 23014KT 9999 SCT030 BKN095 09/03 Q1025 BLU BLU
  • 211355Z 23013KT 9999 SCT030 BKN095 09/03 Q1026 BLU BLU
  • 211325Z 23014KT 9999 SCT030 BKN095 09/03 Q1026 BLU BLU

TAF TAF EBBL
Valide du 21 à 13h jusqu'au 21 à 22h UTC


211141Z 2113/2122 23010G20KT 9999 BKN090
BECMG 2115/2117 BKN030
TEMPO 2115/2117 BKN020



MET'MAP, la Météo Aéronautique d'un coup d'oeil ! - Copyright ORBIFLY Décembre 2007 - Disclaimer

ORBIFLY MET'MAP TEAM :

Programmation & Développement : Alexandra Zaïnal
Sur une idée originale de : Baudouin d'Aumeries
Assistance à la programmation : Marc-Olivier Méhu
Soutien technique & logistique : Manuel Goepfert

Contact : metmap@orbifly.com




SOURCES & CREDITS :

   NOAA